sensor_id;sensor_type;location;lat;lon;timestamp;temperature;humidity
3053;DHT22;1536;51.098;6.414;2023-07-20T00:01:31;19.50;99.90
3053;DHT22;1536;51.098;6.414;2023-07-20T00:03:58;19.40;99.90
3053;DHT22;1536;51.098;6.414;2023-07-20T00:06:26;19.40;99.90
3053;DHT22;1536;51.098;6.414;2023-07-20T00:08:54;19.40;99.90
3053;DHT22;1536;51.098;6.414;2023-07-20T00:11:21;19.40;99.90
3053;DHT22;1536;51.098;6.414;2023-07-20T00:13:47;19.40;99.90
3053;DHT22;1536;51.098;6.414;2023-07-20T00:16:14;19.40;99.90
3053;DHT22;1536;51.098;6.414;2023-07-20T00:18:41;19.40;99.90
3053;DHT22;1536;51.098;6.414;2023-07-20T00:21:08;19.40;99.90
3053;DHT22;1536;51.098;6.414;2023-07-20T00:23:36;19.40;99.90
3053;DHT22;1536;51.098;6.414;2023-07-20T00:26:03;19.40;99.90
3053;DHT22;1536;51.098;6.414;2023-07-20T00:28:29;19.40;99.90
3053;DHT22;1536;51.098;6.414;2023-07-20T00:30:56;19.30;99.90
3053;DHT22;1536;51.098;6.414;2023-07-20T00:33:23;19.40;99.90
3053;DHT22;1536;51.098;6.414;2023-07-20T00:35:51;19.40;99.90
3053;DHT22;1536;51.098;6.414;2023-07-20T00:38:18;19.40;99.90
3053;DHT22;1536;51.098;6.414;2023-07-20T00:40:47;19.40;99.90
3053;DHT22;1536;51.098;6.414;2023-07-20T00:43:15;19.40;99.90
3053;DHT22;1536;51.098;6.414;2023-07-20T00:45:42;19.40;99.90
3053;DHT22;1536;51.098;6.414;2023-07-20T00:48:10;19.50;99.90
3053;DHT22;1536;51.098;6.414;2023-07-20T00:50:39;19.40;99.90
3053;DHT22;1536;51.098;6.414;2023-07-20T00:53:07;19.50;99.90
3053;DHT22;1536;51.098;6.414;2023-07-20T00:55:34;19.50;99.90
3053;DHT22;1536;51.098;6.414;2023-07-20T00:58:02;19.50;99.90
3053;DHT22;1536;51.098;6.414;2023-07-20T01:00:30;19.50;99.90
3053;DHT22;1536;51.098;6.414;2023-07-20T01:02:56;19.50;99.90
3053;DHT22;1536;51.098;6.414;2023-07-20T01:05:25;19.60;99.90
3053;DHT22;1536;51.098;6.414;2023-07-20T01:07:58;19.50;99.90
3053;DHT22;1536;51.098;6.414;2023-07-20T01:10:33;19.60;99.90
3053;DHT22;1536;51.098;6.414;2023-07-20T01:13:06;19.60;99.90
3053;DHT22;1536;51.098;6.414;2023-07-20T01:15:34;19.60;99.90
3053;DHT22;1536;51.098;6.414;2023-07-20T01:18:00;19.60;99.90
3053;DHT22;1536;51.098;6.414;2023-07-20T01:20:42;19.60;99.90
3053;DHT22;1536;51.098;6.414;2023-07-20T01:26:27;19.60;99.90
3053;DHT22;1536;51.098;6.414;2023-07-20T01:29:14;19.60;99.90
3053;DHT22;1536;51.098;6.414;2023-07-20T01:31:47;19.60;99.90
3053;DHT22;1536;51.098;6.414;2023-07-20T01:34:17;19.60;99.90
3053;DHT22;1536;51.098;6.414;2023-07-20T01:36:46;19.60;99.90
3053;DHT22;1536;51.098;6.414;2023-07-20T01:39:15;19.60;99.90
3053;DHT22;1536;51.098;6.414;2023-07-20T01:41:42;19.60;99.90
3053;DHT22;1536;51.098;6.414;2023-07-20T01:44:32;19.60;99.90
3053;DHT22;1536;51.098;6.414;2023-07-20T01:47:00;19.60;99.90
3053;DHT22;1536;51.098;6.414;2023-07-20T01:49:27;19.60;99.90
3053;DHT22;1536;51.098;6.414;2023-07-20T01:51:53;19.60;99.90
3053;DHT22;1536;51.098;6.414;2023-07-20T01:54:20;19.60;99.90
3053;DHT22;1536;51.098;6.414;2023-07-20T01:56:47;19.60;99.90
3053;DHT22;1536;51.098;6.414;2023-07-20T01:59:14;19.60;99.90
3053;DHT22;1536;51.098;6.414;2023-07-20T02:01:41;19.60;99.90
3053;DHT22;1536;51.098;6.414;2023-07-20T02:04:09;19.60;99.90
3053;DHT22;1536;51.098;6.414;2023-07-20T02:06:36;19.60;99.90
3053;DHT22;1536;51.098;6.414;2023-07-20T02:09:03;19.60;99.90
3053;DHT22;1536;51.098;6.414;2023-07-20T02:11:30;19.60;99.90
3053;DHT22;1536;51.098;6.414;2023-07-20T02:13:57;19.50;99.90
3053;DHT22;1536;51.098;6.414;2023-07-20T02:16:23;19.50;99.90
3053;DHT22;1536;51.098;6.414;2023-07-20T02:18:50;19.60;99.90
3053;DHT22;1536;51.098;6.414;2023-07-20T02:21:18;19.50;99.90
3053;DHT22;1536;51.098;6.414;2023-07-20T02:23:45;19.50;99.90
3053;DHT22;1536;51.098;6.414;2023-07-20T02:26:12;19.50;99.90
3053;DHT22;1536;51.098;6.414;2023-07-20T02:28:39;19.50;99.90
3053;DHT22;1536;51.098;6.414;2023-07-20T02:31:06;19.50;99.90
3053;DHT22;1536;51.098;6.414;2023-07-20T02:33:33;19.50;99.90
3053;DHT22;1536;51.098;6.414;2023-07-20T02:36:00;19.50;99.90
3053;DHT22;1536;51.098;6.414;2023-07-20T02:38:28;19.40;99.90
3053;DHT22;1536;51.098;6.414;2023-07-20T02:40:55;19.40;99.90
3053;DHT22;1536;51.098;6.414;2023-07-20T02:43:21;19.30;99.90
3053;DHT22;1536;51.098;6.414;2023-07-20T02:45:50;19.40;99.90
3053;DHT22;1536;51.098;6.414;2023-07-20T02:48:17;19.30;99.90
3053;DHT22;1536;51.098;6.414;2023-07-20T02:50:44;19.30;99.90
3053;DHT22;1536;51.098;6.414;2023-07-20T02:53:11;19.30;99.90
3053;DHT22;1536;51.098;6.414;2023-07-20T02:55:39;19.30;99.90
3053;DHT22;1536;51.098;6.414;2023-07-20T02:58:06;19.20;99.90
3053;DHT22;1536;51.098;6.414;2023-07-20T03:00:33;19.20;99.90
3053;DHT22;1536;51.098;6.414;2023-07-20T03:02:59;19.20;99.90
3053;DHT22;1536;51.098;6.414;2023-07-20T03:05:26;19.20;99.90
3053;DHT22;1536;51.098;6.414;2023-07-20T03:07:55;19.10;99.90
3053;DHT22;1536;51.098;6.414;2023-07-20T03:10:21;19.10;99.90
3053;DHT22;1536;51.098;6.414;2023-07-20T03:12:50;19.10;99.90
3053;DHT22;1536;51.098;6.414;2023-07-20T03:15:16;19.10;99.90
3053;DHT22;1536;51.098;6.414;2023-07-20T03:17:43;19.10;99.90
3053;DHT22;1536;51.098;6.414;2023-07-20T03:20:11;19.20;99.90
3053;DHT22;1536;51.098;6.414;2023-07-20T03:22:38;19.20;99.90
3053;DHT22;1536;51.098;6.414;2023-07-20T03:25:05;19.20;99.90
3053;DHT22;1536;51.098;6.414;2023-07-20T03:27:33;19.20;99.90
3053;DHT22;1536;51.098;6.414;2023-07-20T03:30:01;19.20;99.90
3053;DHT22;1536;51.098;6.414;2023-07-20T03:32:28;19.20;99.90
3053;DHT22;1536;51.098;6.414;2023-07-20T03:34:55;19.10;99.90
3053;DHT22;1536;51.098;6.414;2023-07-20T03:37:22;19.10;99.90
3053;DHT22;1536;51.098;6.414;2023-07-20T03:39:48;19.10;99.90
3053;DHT22;1536;51.098;6.414;2023-07-20T03:42:15;19.20;99.90
3053;DHT22;1536;51.098;6.414;2023-07-20T03:44:42;19.10;99.90
3053;DHT22;1536;51.098;6.414;2023-07-20T03:47:10;19.10;99.90
3053;DHT22;1536;51.098;6.414;2023-07-20T03:49:37;19.10;99.90
3053;DHT22;1536;51.098;6.414;2023-07-20T03:52:05;19.10;99.90
3053;DHT22;1536;51.098;6.414;2023-07-20T03:54:31;19.10;99.90
3053;DHT22;1536;51.098;6.414;2023-07-20T03:56:58;19.10;99.90
3053;DHT22;1536;51.098;6.414;2023-07-20T03:59:26;19.10;99.90
3053;DHT22;1536;51.098;6.414;2023-07-20T04:01:53;19.10;99.90
3053;DHT22;1536;51.098;6.414;2023-07-20T04:04:21;19.20;99.90
3053;DHT22;1536;51.098;6.414;2023-07-20T04:06:48;19.20;99.90
3053;DHT22;1536;51.098;6.414;2023-07-20T04:09:15;19.20;99.90
3053;DHT22;1536;51.098;6.414;2023-07-20T04:11:42;19.20;99.90
3053;DHT22;1536;51.098;6.414;2023-07-20T04:14:08;19.20;99.90
3053;DHT22;1536;51.098;6.414;2023-07-20T04:16:35;19.20;99.90
3053;DHT22;1536;51.098;6.414;2023-07-20T04:19:03;19.20;99.90
3053;DHT22;1536;51.098;6.414;2023-07-20T04:21:31;19.20;99.90
3053;DHT22;1536;51.098;6.414;2023-07-20T04:23:57;19.20;99.90
3053;DHT22;1536;51.098;6.414;2023-07-20T04:26:25;19.20;99.90
3053;DHT22;1536;51.098;6.414;2023-07-20T04:28:51;19.20;99.90
3053;DHT22;1536;51.098;6.414;2023-07-20T04:31:18;19.20;99.90
3053;DHT22;1536;51.098;6.414;2023-07-20T04:33:45;19.30;99.90
3053;DHT22;1536;51.098;6.414;2023-07-20T04:36:12;19.30;99.90
3053;DHT22;1536;51.098;6.414;2023-07-20T04:38:43;19.30;99.90
3053;DHT22;1536;51.098;6.414;2023-07-20T04:41:09;19.30;99.90
3053;DHT22;1536;51.098;6.414;2023-07-20T04:43:41;19.30;99.90
3053;DHT22;1536;51.098;6.414;2023-07-20T04:46:08;19.30;99.90
3053;DHT22;1536;51.098;6.414;2023-07-20T04:48:35;19.40;99.90
3053;DHT22;1536;51.098;6.414;2023-07-20T04:51:02;19.40;99.90
3053;DHT22;1536;51.098;6.414;2023-07-20T04:53:29;19.40;99.90
3053;DHT22;1536;51.098;6.414;2023-07-20T04:55:57;19.40;99.90
3053;DHT22;1536;51.098;6.414;2023-07-20T04:58:24;19.40;99.90
3053;DHT22;1536;51.098;6.414;2023-07-20T05:00:52;19.50;99.90
3053;DHT22;1536;51.098;6.414;2023-07-20T05:03:19;19.50;99.90
3053;DHT22;1536;51.098;6.414;2023-07-20T05:05:46;19.50;99.90
3053;DHT22;1536;51.098;6.414;2023-07-20T05:08:13;19.50;99.90
3053;DHT22;1536;51.098;6.414;2023-07-20T05:10:40;19.50;99.90
3053;DHT22;1536;51.098;6.414;2023-07-20T05:13:08;19.50;99.90
3053;DHT22;1536;51.098;6.414;2023-07-20T05:15:35;19.50;99.90
3053;DHT22;1536;51.098;6.414;2023-07-20T05:18:01;19.50;99.90
3053;DHT22;1536;51.098;6.414;2023-07-20T05:20:28;19.50;99.90
3053;DHT22;1536;51.098;6.414;2023-07-20T05:22:57;19.50;99.90
3053;DHT22;1536;51.098;6.414;2023-07-20T05:25:24;19.50;99.90
3053;DHT22;1536;51.098;6.414;2023-07-20T05:27:52;19.60;99.90
3053;DHT22;1536;51.098;6.414;2023-07-20T05:30:22;19.60;99.90
3053;DHT22;1536;51.098;6.414;2023-07-20T05:32:48;19.60;99.90
3053;DHT22;1536;51.098;6.414;2023-07-20T05:35:17;19.70;99.90
3053;DHT22;1536;51.098;6.414;2023-07-20T05:37:44;19.70;99.90
3053;DHT22;1536;51.098;6.414;2023-07-20T05:40:12;19.70;99.90
3053;DHT22;1536;51.098;6.414;2023-07-20T05:42:39;19.70;99.90
3053;DHT22;1536;51.098;6.414;2023-07-20T05:45:06;19.70;99.90
3053;DHT22;1536;51.098;6.414;2023-07-20T05:47:35;19.80;99.90
3053;DHT22;1536;51.098;6.414;2023-07-20T05:50:01;19.80;99.90
3053;DHT22;1536;51.098;6.414;2023-07-20T05:52:29;19.90;99.90
3053;DHT22;1536;51.098;6.414;2023-07-20T05:54:55;19.90;99.90
3053;DHT22;1536;51.098;6.414;2023-07-20T05:57:22;19.90;99.90
3053;DHT22;1536;51.098;6.414;2023-07-20T05:59:49;20.00;99.90
3053;DHT22;1536;51.098;6.414;2023-07-20T06:02:16;20.00;99.90
3053;DHT22;1536;51.098;6.414;2023-07-20T06:04:44;20.00;99.90
3053;DHT22;1536;51.098;6.414;2023-07-20T06:07:11;20.00;99.90
3053;DHT22;1536;51.098;6.414;2023-07-20T06:09:38;20.00;99.90
3053;DHT22;1536;51.098;6.414;2023-07-20T06:12:06;20.00;99.90
3053;DHT22;1536;51.098;6.414;2023-07-20T06:14:33;19.90;99.90
3053;DHT22;1536;51.098;6.414;2023-07-20T06:17:00;20.00;99.90
3053;DHT22;1536;51.098;6.414;2023-07-20T06:19:27;20.00;99.90
3053;DHT22;1536;51.098;6.414;2023-07-20T06:21:55;20.00;99.90
3053;DHT22;1536;51.098;6.414;2023-07-20T06:24:22;20.00;99.90
3053;DHT22;1536;51.098;6.414;2023-07-20T06:26:48;20.00;99.90
3053;DHT22;1536;51.098;6.414;2023-07-20T06:29:15;20.00;99.90
3053;DHT22;1536;51.098;6.414;2023-07-20T06:31:42;20.10;99.90
3053;DHT22;1536;51.098;6.414;2023-07-20T06:34:09;20.10;99.90
3053;DHT22;1536;51.098;6.414;2023-07-20T06:36:35;20.10;99.90
3053;DHT22;1536;51.098;6.414;2023-07-20T06:39:03;20.10;99.90
3053;DHT22;1536;51.098;6.414;2023-07-20T06:41:30;20.10;99.90
3053;DHT22;1536;51.098;6.414;2023-07-20T06:43:57;20.10;99.90
3053;DHT22;1536;51.098;6.414;2023-07-20T06:46:24;20.20;99.90
3053;DHT22;1536;51.098;6.414;2023-07-20T06:48:52;20.30;99.90
3053;DHT22;1536;51.098;6.414;2023-07-20T06:51:19;20.30;99.90
3053;DHT22;1536;51.098;6.414;2023-07-20T06:53:45;20.40;99.90
3053;DHT22;1536;51.098;6.414;2023-07-20T06:56:14;20.60;99.90
3053;DHT22;1536;51.098;6.414;2023-07-20T06:58:40;20.60;99.90
3053;DHT22;1536;51.098;6.414;2023-07-20T07:01:08;20.60;99.90
3053;DHT22;1536;51.098;6.414;2023-07-20T07:03:35;20.60;99.90
3053;DHT22;1536;51.098;6.414;2023-07-20T07:06:02;20.50;99.90
3053;DHT22;1536;51.098;6.414;2023-07-20T07:08:29;20.40;99.90
3053;DHT22;1536;51.098;6.414;2023-07-20T07:10:56;20.40;99.90
3053;DHT22;1536;51.098;6.414;2023-07-20T07:13:24;20.40;99.90
3053;DHT22;1536;51.098;6.414;2023-07-20T07:15:51;20.40;99.90
3053;DHT22;1536;51.098;6.414;2023-07-20T07:18:17;20.40;99.90
3053;DHT22;1536;51.098;6.414;2023-07-20T07:20:50;20.50;99.90
3053;DHT22;1536;51.098;6.414;2023-07-20T07:23:17;20.50;99.90
3053;DHT22;1536;51.098;6.414;2023-07-20T07:25:44;20.60;99.90
3053;DHT22;1536;51.098;6.414;2023-07-20T07:28:11;20.80;99.90
3053;DHT22;1536;51.098;6.414;2023-07-20T07:30:40;20.90;99.90
3053;DHT22;1536;51.098;6.414;2023-07-20T07:33:07;21.00;99.90
3053;DHT22;1536;51.098;6.414;2023-07-20T07:35:34;21.00;99.90
3053;DHT22;1536;51.098;6.414;2023-07-20T07:38:00;21.00;99.90
3053;DHT22;1536;51.098;6.414;2023-07-20T07:40:27;21.00;99.90
3053;DHT22;1536;51.098;6.414;2023-07-20T07:42:54;21.00;99.90
3053;DHT22;1536;51.098;6.414;2023-07-20T07:45:21;21.00;99.90
3053;DHT22;1536;51.098;6.414;2023-07-20T07:47:49;20.90;99.90
3053;DHT22;1536;51.098;6.414;2023-07-20T07:50:15;20.90;99.90
3053;DHT22;1536;51.098;6.414;2023-07-20T07:52:42;20.90;99.90
3053;DHT22;1536;51.098;6.414;2023-07-20T07:55:09;21.00;99.90
3053;DHT22;1536;51.098;6.414;2023-07-20T07:57:36;21.00;99.90
3053;DHT22;1536;51.098;6.414;2023-07-20T08:00:03;21.10;99.90
3053;DHT22;1536;51.098;6.414;2023-07-20T08:02:31;21.20;99.90
3053;DHT22;1536;51.098;6.414;2023-07-20T08:05:02;21.30;99.90
3053;DHT22;1536;51.098;6.414;2023-07-20T08:07:28;21.40;99.90
3053;DHT22;1536;51.098;6.414;2023-07-20T08:09:55;21.50;99.90
3053;DHT22;1536;51.098;6.414;2023-07-20T08:12:22;21.50;99.90
3053;DHT22;1536;51.098;6.414;2023-07-20T08:14:48;21.60;99.90
3053;DHT22;1536;51.098;6.414;2023-07-20T08:17:15;21.60;99.90
3053;DHT22;1536;51.098;6.414;2023-07-20T08:19:43;21.60;99.90
3053;DHT22;1536;51.098;6.414;2023-07-20T08:22:11;21.70;99.90
3053;DHT22;1536;51.098;6.414;2023-07-20T08:24:39;21.80;99.90
3053;DHT22;1536;51.098;6.414;2023-07-20T08:27:06;22.00;99.90
3053;DHT22;1536;51.098;6.414;2023-07-20T08:29:34;22.10;99.90
3053;DHT22;1536;51.098;6.414;2023-07-20T08:32:00;22.20;99.90
3053;DHT22;1536;51.098;6.414;2023-07-20T08:34:27;22.20;99.90
3053;DHT22;1536;51.098;6.414;2023-07-20T08:36:54;22.10;99.90
3053;DHT22;1536;51.098;6.414;2023-07-20T08:39:22;22.20;99.90
3053;DHT22;1536;51.098;6.414;2023-07-20T08:41:50;22.20;99.90
3053;DHT22;1536;51.098;6.414;2023-07-20T08:44:17;22.40;99.90
3053;DHT22;1536;51.098;6.414;2023-07-20T08:46:44;22.40;99.90
3053;DHT22;1536;51.098;6.414;2023-07-20T08:49:11;22.50;99.90
3053;DHT22;1536;51.098;6.414;2023-07-20T08:51:39;22.70;99.90
3053;DHT22;1536;51.098;6.414;2023-07-20T08:54:08;22.80;99.90
3053;DHT22;1536;51.098;6.414;2023-07-20T08:56:37;22.90;99.90
3053;DHT22;1536;51.098;6.414;2023-07-20T08:59:05;22.90;99.90
3053;DHT22;1536;51.098;6.414;2023-07-20T09:01:32;22.80;99.90
3053;DHT22;1536;51.098;6.414;2023-07-20T09:04:00;22.70;99.90
3053;DHT22;1536;51.098;6.414;2023-07-20T09:06:26;22.70;99.90
3053;DHT22;1536;51.098;6.414;2023-07-20T09:08:53;22.80;99.90
3053;DHT22;1536;51.098;6.414;2023-07-20T09:11:20;22.90;99.90
3053;DHT22;1536;51.098;6.414;2023-07-20T09:13:48;23.00;99.90
3053;DHT22;1536;51.098;6.414;2023-07-20T09:16:28;23.10;99.90
3053;DHT22;1536;51.098;6.414;2023-07-20T09:18:57;23.20;99.90
3053;DHT22;1536;51.098;6.414;2023-07-20T09:21:29;23.30;99.90
3053;DHT22;1536;51.098;6.414;2023-07-20T09:23:56;23.40;99.90
3053;DHT22;1536;51.098;6.414;2023-07-20T09:26:23;23.50;99.90
3053;DHT22;1536;51.098;6.414;2023-07-20T09:28:52;23.70;99.90
3053;DHT22;1536;51.098;6.414;2023-07-20T09:31:21;23.80;99.90
3053;DHT22;1536;51.098;6.414;2023-07-20T09:33:50;23.90;99.30
3053;DHT22;1536;51.098;6.414;2023-07-20T09:36:18;24.10;98.40
3053;DHT22;1536;51.098;6.414;2023-07-20T09:38:45;24.10;97.60
3053;DHT22;1536;51.098;6.414;2023-07-20T09:41:13;24.10;97.60
3053;DHT22;1536;51.098;6.414;2023-07-20T09:43:41;23.90;97.40
3053;DHT22;1536;51.098;6.414;2023-07-20T09:46:10;23.70;96.90
3053;DHT22;1536;51.098;6.414;2023-07-20T09:48:37;23.60;97.30
3053;DHT22;1536;51.098;6.414;2023-07-20T09:51:05;23.50;97.60
3053;DHT22;1536;51.098;6.414;2023-07-20T09:53:33;23.50;98.20
3053;DHT22;1536;51.098;6.414;2023-07-20T09:56:00;23.60;98.80
3053;DHT22;1536;51.098;6.414;2023-07-20T09:58:29;23.80;98.40
3053;DHT22;1536;51.098;6.414;2023-07-20T10:00:59;24.00;98.30
3053;DHT22;1536;51.098;6.414;2023-07-20T10:03:29;24.20;97.70
3053;DHT22;1536;51.098;6.414;2023-07-20T10:06:00;24.40;97.30
3053;DHT22;1536;51.098;6.414;2023-07-20T10:08:29;24.60;97.00
3053;DHT22;1536;51.098;6.414;2023-07-20T10:10:58;24.70;96.90
3053;DHT22;1536;51.098;6.414;2023-07-20T10:13:26;24.80;95.80
3053;DHT22;1536;51.098;6.414;2023-07-20T10:15:55;24.70;95.60
3053;DHT22;1536;51.098;6.414;2023-07-20T10:18:29;24.60;95.80
3053;DHT22;1536;51.098;6.414;2023-07-20T10:20:57;24.50;96.00
3053;DHT22;1536;51.098;6.414;2023-07-20T10:23:27;24.40;96.10
3053;DHT22;1536;51.098;6.414;2023-07-20T10:25:55;24.40;96.30
3053;DHT22;1536;51.098;6.414;2023-07-20T10:28:23;24.50;96.50
3053;DHT22;1536;51.098;6.414;2023-07-20T10:30:51;24.60;95.80
3053;DHT22;1536;51.098;6.414;2023-07-20T10:33:18;24.70;96.20
3053;DHT22;1536;51.098;6.414;2023-07-20T10:35:53;24.80;95.40
3053;DHT22;1536;51.098;6.414;2023-07-20T10:38:19;24.90;95.30
3053;DHT22;1536;51.098;6.414;2023-07-20T10:40:54;25.00;95.10
3053;DHT22;1536;51.098;6.414;2023-07-20T10:43:21;25.00;94.50
3053;DHT22;1536;51.098;6.414;2023-07-20T10:45:49;25.10;94.40
3053;DHT22;1536;51.098;6.414;2023-07-20T10:48:18;24.90;94.30
3053;DHT22;1536;51.098;6.414;2023-07-20T10:50:45;24.70;94.40
3053;DHT22;1536;51.098;6.414;2023-07-20T10:53:16;24.50;94.60
3053;DHT22;1536;51.098;6.414;2023-07-20T10:55:44;24.60;95.00
3053;DHT22;1536;51.098;6.414;2023-07-20T10:58:12;24.60;95.10
3053;DHT22;1536;51.098;6.414;2023-07-20T11:00:58;24.80;94.80
3053;DHT22;1536;51.098;6.414;2023-07-20T11:03:27;25.00;93.90
3053;DHT22;1536;51.098;6.414;2023-07-20T11:05:56;25.00;94.00
3053;DHT22;1536;51.098;6.414;2023-07-20T11:11:26;25.00;93.90
3053;DHT22;1536;51.098;6.414;2023-07-20T11:13:55;24.90;93.70
3053;DHT22;1536;51.098;6.414;2023-07-20T11:16:36;24.80;93.70
3053;DHT22;1536;51.098;6.414;2023-07-20T11:19:04;24.90;93.90
3053;DHT22;1536;51.098;6.414;2023-07-20T11:21:35;24.90;94.10
3053;DHT22;1536;51.098;6.414;2023-07-20T11:24:03;24.90;93.60
3053;DHT22;1536;51.098;6.414;2023-07-20T11:26:39;24.80;93.70
3053;DHT22;1536;51.098;6.414;2023-07-20T11:29:06;24.80;93.80
3053;DHT22;1536;51.098;6.414;2023-07-20T11:31:35;25.00;93.90
3053;DHT22;1536;51.098;6.414;2023-07-20T11:34:02;25.10;93.60
3053;DHT22;1536;51.098;6.414;2023-07-20T11:36:29;25.30;93.00
3053;DHT22;1536;51.098;6.414;2023-07-20T11:38:55;25.50;92.90
3053;DHT22;1536;51.098;6.414;2023-07-20T11:41:22;25.60;92.20
3053;DHT22;1536;51.098;6.414;2023-07-20T11:43:50;25.80;92.00
3053;DHT22;1536;51.098;6.414;2023-07-20T11:46:17;25.90;91.50
3053;DHT22;1536;51.098;6.414;2023-07-20T11:48:43;26.00;91.20
3053;DHT22;1536;51.098;6.414;2023-07-20T11:51:13;25.90;90.90
3053;DHT22;1536;51.098;6.414;2023-07-20T11:53:41;25.80;91.30
3053;DHT22;1536;51.098;6.414;2023-07-20T11:56:08;25.70;91.30
3053;DHT22;1536;51.098;6.414;2023-07-20T11:58:34;25.70;91.00
3053;DHT22;1536;51.098;6.414;2023-07-20T12:01:02;25.70;91.00
3053;DHT22;1536;51.098;6.414;2023-07-20T12:03:29;25.60;90.80
3053;DHT22;1536;51.098;6.414;2023-07-20T12:05:56;25.50;91.10
3053;DHT22;1536;51.098;6.414;2023-07-20T12:08:32;25.50;91.10
3053;DHT22;1536;51.098;6.414;2023-07-20T12:10:59;25.60;90.80
3053;DHT22;1536;51.098;6.414;2023-07-20T12:13:36;25.70;90.40
3053;DHT22;1536;51.098;6.414;2023-07-20T12:16:09;25.90;90.40
3053;DHT22;1536;51.098;6.414;2023-07-20T12:18:36;26.10;90.50
3053;DHT22;1536;51.098;6.414;2023-07-20T12:21:03;26.10;90.70
3053;DHT22;1536;51.098;6.414;2023-07-20T12:23:35;26.10;90.40
3053;DHT22;1536;51.098;6.414;2023-07-20T12:26:02;26.00;89.60
3053;DHT22;1536;51.098;6.414;2023-07-20T12:28:29;25.90;89.20
3053;DHT22;1536;51.098;6.414;2023-07-20T12:30:56;25.80;89.20
3053;DHT22;1536;51.098;6.414;2023-07-20T12:33:24;25.70;88.70
3053;DHT22;1536;51.098;6.414;2023-07-20T12:35:51;25.70;87.40
3053;DHT22;1536;51.098;6.414;2023-07-20T12:38:21;25.60;87.90
3053;DHT22;1536;51.098;6.414;2023-07-20T12:40:48;25.60;88.00
3053;DHT22;1536;51.098;6.414;2023-07-20T12:43:15;25.60;87.70
3053;DHT22;1536;51.098;6.414;2023-07-20T12:45:42;25.80;87.50
3053;DHT22;1536;51.098;6.414;2023-07-20T12:48:08;25.80;86.70
3053;DHT22;1536;51.098;6.414;2023-07-20T12:50:36;25.90;86.90
3053;DHT22;1536;51.098;6.414;2023-07-20T12:53:03;25.90;87.10
3053;DHT22;1536;51.098;6.414;2023-07-20T12:55:30;25.90;86.40
3053;DHT22;1536;51.098;6.414;2023-07-20T12:57:56;25.90;85.90
3053;DHT22;1536;51.098;6.414;2023-07-20T13:00:23;25.90;85.90
3053;DHT22;1536;51.098;6.414;2023-07-20T13:02:49;26.00;85.80
3053;DHT22;1536;51.098;6.414;2023-07-20T13:05:16;26.10;85.80
3053;DHT22;1536;51.098;6.414;2023-07-20T13:07:44;26.20;85.70
3053;DHT22;1536;51.098;6.414;2023-07-20T13:10:11;26.20;85.00
3053;DHT22;1536;51.098;6.414;2023-07-20T13:12:38;26.20;84.70
3053;DHT22;1536;51.098;6.414;2023-07-20T13:15:07;26.10;84.90
3053;DHT22;1536;51.098;6.414;2023-07-20T13:17:34;26.10;83.90
3053;DHT22;1536;51.098;6.414;2023-07-20T13:20:02;26.00;83.30
3053;DHT22;1536;51.098;6.414;2023-07-20T13:22:30;26.00;83.40
3053;DHT22;1536;51.098;6.414;2023-07-20T13:24:58;26.10;83.50
3053;DHT22;1536;51.098;6.414;2023-07-20T13:27:24;26.20;84.30
3053;DHT22;1536;51.098;6.414;2023-07-20T13:29:52;26.30;84.40
3053;DHT22;1536;51.098;6.414;2023-07-20T13:32:19;26.30;83.60
3053;DHT22;1536;51.098;6.414;2023-07-20T13:34:46;26.30;83.00
3053;DHT22;1536;51.098;6.414;2023-07-20T13:37:13;26.30;82.30
3053;DHT22;1536;51.098;6.414;2023-07-20T13:39:41;26.20;82.80
3053;DHT22;1536;51.098;6.414;2023-07-20T13:42:10;26.20;82.80
3053;DHT22;1536;51.098;6.414;2023-07-20T13:44:38;26.10;82.50
3053;DHT22;1536;51.098;6.414;2023-07-20T13:47:05;26.10;82.20
3053;DHT22;1536;51.098;6.414;2023-07-20T13:49:31;26.10;82.30
3053;DHT22;1536;51.098;6.414;2023-07-20T13:51:58;26.10;81.90
3053;DHT22;1536;51.098;6.414;2023-07-20T13:54:25;26.20;82.60
3053;DHT22;1536;51.098;6.414;2023-07-20T13:56:52;26.30;82.40
3053;DHT22;1536;51.098;6.414;2023-07-20T13:59:20;26.40;82.40
3053;DHT22;1536;51.098;6.414;2023-07-20T14:01:46;26.40;82.70
3053;DHT22;1536;51.098;6.414;2023-07-20T14:04:13;26.40;81.70
3053;DHT22;1536;51.098;6.414;2023-07-20T14:06:40;26.40;81.20
3053;DHT22;1536;51.098;6.414;2023-07-20T14:09:06;26.50;81.20
3053;DHT22;1536;51.098;6.414;2023-07-20T14:11:33;26.50;80.30
3053;DHT22;1536;51.098;6.414;2023-07-20T14:14:00;26.60;80.30
3053;DHT22;1536;51.098;6.414;2023-07-20T14:16:29;26.70;80.90
3053;DHT22;1536;51.098;6.414;2023-07-20T14:18:57;26.70;79.90
3053;DHT22;1536;51.098;6.414;2023-07-20T14:21:24;26.60;78.90
3053;DHT22;1536;51.098;6.414;2023-07-20T14:23:51;26.50;77.70
3053;DHT22;1536;51.098;6.414;2023-07-20T14:26:18;26.30;77.90
3053;DHT22;1536;51.098;6.414;2023-07-20T14:28:45;26.30;78.80
3053;DHT22;1536;51.098;6.414;2023-07-20T14:31:12;26.20;79.20
3053;DHT22;1536;51.098;6.414;2023-07-20T14:33:40;26.10;79.20
3053;DHT22;1536;51.098;6.414;2023-07-20T14:36:07;26.10;79.40
3053;DHT22;1536;51.098;6.414;2023-07-20T14:38:34;26.00;78.70
3053;DHT22;1536;51.098;6.414;2023-07-20T14:41:01;25.90;77.80
3053;DHT22;1536;51.098;6.414;2023-07-20T14:43:28;25.80;78.20
3053;DHT22;1536;51.098;6.414;2023-07-20T14:45:55;25.70;79.30
3053;DHT22;1536;51.098;6.414;2023-07-20T14:48:21;25.60;80.30
3053;DHT22;1536;51.098;6.414;2023-07-20T14:50:49;25.60;80.30
3053;DHT22;1536;51.098;6.414;2023-07-20T14:53:16;25.60;79.40
3053;DHT22;1536;51.098;6.414;2023-07-20T14:55:43;25.50;79.50
3053;DHT22;1536;51.098;6.414;2023-07-20T14:58:09;25.50;79.70
3053;DHT22;1536;51.098;6.414;2023-07-20T15:00:36;25.50;79.60
3053;DHT22;1536;51.098;6.414;2023-07-20T15:03:03;25.50;80.50
3053;DHT22;1536;51.098;6.414;2023-07-20T15:05:31;25.50;81.70
3053;DHT22;1536;51.098;6.414;2023-07-20T15:07:59;25.50;82.10
3053;DHT22;1536;51.098;6.414;2023-07-20T15:10:25;25.50;82.10
3053;DHT22;1536;51.098;6.414;2023-07-20T15:12:52;25.50;81.80
3053;DHT22;1536;51.098;6.414;2023-07-20T15:15:18;25.50;81.60
3053;DHT22;1536;51.098;6.414;2023-07-20T15:17:45;25.60;80.70
3053;DHT22;1536;51.098;6.414;2023-07-20T15:20:13;25.90;80.80
3053;DHT22;1536;51.098;6.414;2023-07-20T15:22:40;26.00;79.70
3053;DHT22;1536;51.098;6.414;2023-07-20T15:25:09;25.90;79.50
3053;DHT22;1536;51.098;6.414;2023-07-20T15:27:37;25.90;80.50
3053;DHT22;1536;51.098;6.414;2023-07-20T15:30:05;25.90;80.50
3053;DHT22;1536;51.098;6.414;2023-07-20T15:32:32;25.90;79.70
3053;DHT22;1536;51.098;6.414;2023-07-20T15:34:58;25.90;79.00
3053;DHT22;1536;51.098;6.414;2023-07-20T15:37:25;25.90;79.90
3053;DHT22;1536;51.098;6.414;2023-07-20T15:39:52;25.90;80.20
3053;DHT22;1536;51.098;6.414;2023-07-20T15:42:20;25.90;80.70
3053;DHT22;1536;51.098;6.414;2023-07-20T15:44:47;25.90;81.00
3053;DHT22;1536;51.098;6.414;2023-07-20T15:47:14;25.80;81.20
3053;DHT22;1536;51.098;6.414;2023-07-20T15:49:41;25.80;81.10
3053;DHT22;1536;51.098;6.414;2023-07-20T15:52:08;25.70;81.50
3053;DHT22;1536;51.098;6.414;2023-07-20T15:54:35;25.80;81.70
3053;DHT22;1536;51.098;6.414;2023-07-20T15:57:03;25.80;79.70
3053;DHT22;1536;51.098;6.414;2023-07-20T15:59:31;25.90;79.40
3053;DHT22;1536;51.098;6.414;2023-07-20T16:01:58;26.00;79.80
3053;DHT22;1536;51.098;6.414;2023-07-20T16:04:24;26.10;79.60
3053;DHT22;1536;51.098;6.414;2023-07-20T16:06:51;26.10;79.30
3053;DHT22;1536;51.098;6.414;2023-07-20T16:09:18;26.00;76.70
3053;DHT22;1536;51.098;6.414;2023-07-20T16:11:45;26.00;77.00